createdAt,value
2023-11-23T00:00:27.539Z,96066.00
2023-11-23T00:01:27.536Z,96067.00
2023-11-23T00:02:27.590Z,96066.00
2023-11-23T00:03:27.555Z,96065.00
2023-11-23T00:04:27.523Z,96063.00
2023-11-23T00:05:27.487Z,96064.00
2023-11-23T00:57:47.449Z,96045.00
2023-11-23T00:58:27.010Z,96046.00
2023-11-23T00:59:27.000Z,96046.00
2023-11-23T01:00:26.981Z,96047.00
2023-11-23T01:01:27.090Z,96048.00
2023-11-23T01:02:27.063Z,96047.00
2023-11-23T01:03:27.023Z,96046.00
2023-11-23T01:04:26.946Z,96049.00
2023-11-23T01:05:26.952Z,96048.00
2023-11-23T01:06:26.937Z,96047.00
2023-11-23T01:07:26.917Z,96046.00
2023-11-23T01:08:26.917Z,96043.00
2023-11-23T01:09:26.902Z,96044.00
2023-11-23T01:10:26.890Z,96042.00
2023-11-23T01:11:26.890Z,96040.00
2023-11-23T01:12:26.879Z,96039.00
2023-11-23T01:13:26.894Z,96040.00
2023-11-23T01:14:26.881Z,96038.00
2023-11-23T01:15:26.843Z,96039.00
2023-11-23T01:16:26.848Z,96042.00
2023-11-23T01:17:26.857Z,96042.00
2023-11-23T01:18:27.044Z,96042.00
2023-11-23T01:19:26.813Z,96042.00
2023-11-23T01:20:26.801Z,96041.00
2023-11-23T01:21:26.797Z,96041.00
2023-11-23T01:22:26.785Z,96039.00
2023-11-23T01:23:26.788Z,96039.00
2023-11-23T01:24:26.788Z,96039.00
2023-11-23T01:25:26.765Z,96038.00
2023-11-23T01:26:26.749Z,96036.00
2023-11-23T01:27:26.738Z,96035.00
2023-11-23T01:28:26.730Z,96032.00
2023-11-23T01:29:26.756Z,96032.00
2023-11-23T01:30:26.728Z,96029.00
2023-11-23T01:31:26.700Z,96028.00
2023-11-23T01:32:26.700Z,96027.00
2023-11-23T01:33:26.779Z,96025.00
2023-11-23T01:34:26.721Z,96026.00
2023-11-23T01:35:26.665Z,96025.00
2023-11-23T01:36:26.662Z,96024.00
2023-11-23T01:37:26.654Z,96021.00
2023-11-23T01:38:26.647Z,96022.00
2023-11-23T01:39:26.725Z,96017.00
2023-11-23T01:40:26.634Z,96018.00
2023-11-23T01:41:26.619Z,96018.00
2023-11-23T01:42:26.615Z,96017.00
2023-11-23T01:43:26.596Z,96017.00
2023-11-23T01:44:26.586Z,96014.00
2023-11-23T01:45:26.651Z,96014.00
2023-11-23T01:46:26.567Z,96016.00
2023-11-23T01:47:26.556Z,96014.00
2023-11-23T01:48:26.632Z,96015.00
2023-11-23T01:49:26.627Z,96014.00
2023-11-23T01:50:26.528Z,96014.00
2023-11-23T01:51:26.541Z,96014.00
2023-11-23T01:52:26.502Z,96011.00
2023-11-23T01:53:26.504Z,96011.00
2023-11-23T01:54:26.490Z,96014.00
2023-11-23T01:55:26.490Z,96011.00
2023-11-23T01:56:26.483Z,96013.00
2023-11-23T01:57:26.478Z,96011.00
2023-11-23T01:58:26.459Z,96012.00
2023-11-23T01:59:26.444Z,96012.00
2023-11-23T02:00:26.450Z,96009.00
2023-11-23T02:01:26.531Z,96007.00
2023-11-23T02:02:26.438Z,96008.00
2023-11-23T02:03:26.439Z,96009.00
2023-11-23T02:04:26.428Z,96010.00
2023-11-23T02:05:26.393Z,96010.00
2023-11-23T02:06:26.392Z,96011.00
2023-11-23T02:07:26.381Z,96013.00
2023-11-23T02:08:26.367Z,96014.00
2023-11-23T02:09:26.352Z,96017.00
2023-11-23T02:10:26.362Z,96017.00
2023-11-23T02:11:26.344Z,96018.00
2023-11-23T02:12:26.333Z,96022.00
2023-11-23T02:13:26.332Z,96021.00
2023-11-23T02:14:26.311Z,96021.00
2023-11-23T02:15:26.338Z,96021.00
2023-11-23T02:16:26.978Z,96021.00
2023-11-23T02:17:26.670Z,96020.00
2023-11-23T02:18:26.383Z,96024.00
2023-11-23T02:19:26.266Z,96024.00
2023-11-23T02:20:26.269Z,96028.00
2023-11-23T02:21:26.242Z,96028.00
2023-11-23T02:22:26.238Z,96034.00
2023-11-23T02:23:26.239Z,96033.00
2023-11-23T02:24:26.242Z,96033.00
2023-11-23T02:25:26.220Z,96034.00
2023-11-23T02:26:26.197Z,96036.00
2023-11-23T02:27:26.209Z,96036.00
2023-11-23T02:28:26.184Z,96036.00
2023-11-23T02:29:26.169Z,96036.00
2023-11-23T02:30:26.284Z,96037.00
2023-11-23T02:31:26.168Z,96036.00
2023-11-23T02:32:26.189Z,96036.00
2023-11-23T02:33:26.335Z,96038.00
2023-11-23T02:34:26.140Z,96035.00
2023-11-23T02:35:26.140Z,96038.00
2023-11-23T02:36:26.104Z,96034.00
2023-11-23T02:37:26.098Z,96035.00
2023-11-23T02:38:26.093Z,96035.00
2023-11-23T02:39:26.080Z,96036.00
2023-11-23T02:40:26.097Z,96036.00
2023-11-23T02:41:26.065Z,96039.00
2023-11-23T02:42:26.063Z,96044.00
2023-11-23T02:43:26.143Z,96046.00
2023-11-23T02:44:26.039Z,96050.00
2023-11-23T02:45:26.092Z,96048.00
2023-11-23T02:46:26.070Z,96050.00
2023-11-23T02:47:26.018Z,96050.00
2023-11-23T02:48:26.072Z,96051.00
2023-11-23T02:49:26.017Z,96051.00
2023-11-23T02:50:26.001Z,96048.00
2023-11-23T02:51:25.998Z,96047.00
2023-11-23T02:52:25.975Z,96046.00
2023-11-23T02:53:25.953Z,96046.00
2023-11-23T02:54:25.977Z,96045.00
2023-11-23T02:55:25.997Z,96045.00
2023-11-23T02:56:25.928Z,96050.00
2023-11-23T02:57:25.919Z,96048.00
2023-11-23T02:58:25.914Z,96052.00
2023-11-23T02:59:25.897Z,96050.00
2023-11-23T03:00:25.917Z,96050.00
2023-11-23T03:01:25.934Z,96048.00
2023-11-23T03:02:26.133Z,96048.00
2023-11-23T03:03:25.917Z,96047.00
2023-11-23T03:04:25.901Z,96044.00
2023-11-23T03:05:25.880Z,96044.00
2023-11-23T03:06:25.870Z,96043.00
2023-11-23T03:07:25.831Z,96041.00
2023-11-23T03:08:25.816Z,96038.00
2023-11-23T03:09:25.866Z,96037.00
2023-11-23T03:10:25.799Z,96039.00
2023-11-23T03:11:25.797Z,96040.00
2023-11-23T03:12:25.824Z,96042.00
2023-11-23T03:13:25.770Z,96042.00
2023-11-23T03:14:25.762Z,96039.00
2023-11-23T03:15:25.826Z,96038.00
2023-11-23T03:16:25.745Z,96034.00
2023-11-23T03:17:25.813Z,96033.00
2023-11-23T03:18:25.874Z,96030.00
2023-11-23T03:19:25.732Z,96028.00
2023-11-23T03:20:25.710Z,96027.00
2023-11-23T03:21:25.850Z,96028.00
2023-11-23T03:22:25.692Z,96024.00
2023-11-23T03:23:25.682Z,96020.00
2023-11-23T03:24:25.716Z,96016.00
2023-11-23T03:25:25.661Z,96015.00
2023-11-23T03:26:25.654Z,96015.00
2023-11-23T03:27:25.695Z,96012.00
2023-11-23T03:28:25.643Z,96010.00
2023-11-23T03:29:25.624Z,96009.00
2023-11-23T03:30:25.681Z,96007.00
2023-11-23T03:31:25.608Z,96008.00
2023-11-23T03:32:25.639Z,96009.00
2023-11-23T03:33:25.674Z,96008.00
2023-11-23T03:34:25.593Z,96010.00
2023-11-23T03:35:25.582Z,96009.00
2023-11-23T03:36:25.565Z,96010.00
2023-11-23T03:37:25.575Z,96012.00
2023-11-23T03:38:25.544Z,96012.00
2023-11-23T03:39:25.596Z,96012.00
2023-11-23T03:40:25.526Z,96012.00
2023-11-23T03:41:25.518Z,96011.00
2023-11-23T03:42:25.563Z,96011.00
2023-11-23T03:43:25.504Z,96013.00
2023-11-23T03:44:25.497Z,96019.00
2023-11-23T03:45:25.549Z,96021.00
2023-11-23T03:46:25.478Z,96023.00
2023-11-23T03:47:25.485Z,96025.00
2023-11-23T03:48:25.649Z,96028.00
2023-11-23T03:49:25.462Z,96027.00
2023-11-23T03:50:25.452Z,96030.00
2023-11-23T03:51:25.524Z,96037.00
2023-11-23T03:52:25.442Z,96038.00
2023-11-23T03:53:25.446Z,96041.00
2023-11-23T03:54:25.450Z,96040.00
2023-11-23T03:55:25.411Z,96043.00
2023-11-23T03:56:25.394Z,96042.00
2023-11-23T03:57:25.413Z,96044.00
2023-11-23T03:58:25.366Z,96044.00
2023-11-23T03:59:25.358Z,96045.00
2023-11-23T04:00:25.376Z,96042.00
2023-11-23T04:01:25.375Z,96044.00
2023-11-23T04:02:25.419Z,96044.00
2023-11-23T04:03:25.361Z,96047.00
2023-11-23T04:04:25.346Z,96045.00
2023-11-23T04:05:25.298Z,96042.00
2023-11-23T04:06:25.334Z,96043.00
2023-11-23T04:07:25.287Z,96045.00
2023-11-23T04:08:25.293Z,96048.00
2023-11-23T04:09:25.324Z,96052.00
2023-11-23T04:10:25.258Z,96049.00
2023-11-23T04:11:25.246Z,96052.00
2023-11-23T04:12:25.272Z,96053.00
2023-11-23T04:13:25.243Z,96056.00
2023-11-23T04:14:25.225Z,96056.00
2023-11-23T04:15:25.260Z,96058.00
2023-11-23T04:16:25.231Z,96056.00
2023-11-23T04:17:25.223Z,96054.00
2023-11-23T04:18:25.237Z,96057.00
2023-11-23T04:19:25.170Z,96057.00
2023-11-23T04:20:25.168Z,96062.00
2023-11-23T04:21:25.171Z,96065.00
2023-11-23T04:22:25.150Z,96070.00
2023-11-23T04:23:25.139Z,96069.00
2023-11-23T04:24:25.176Z,96068.00
2023-11-23T04:25:25.145Z,96065.00
2023-11-23T04:26:25.111Z,96066.00
2023-11-23T04:27:25.137Z,96066.00
2023-11-23T04:28:25.091Z,96068.00
2023-11-23T04:29:25.090Z,96068.00
2023-11-23T04:30:25.152Z,96068.00
2023-11-23T04:31:25.067Z,96069.00
2023-11-23T04:32:25.074Z,96068.00
2023-11-23T04:33:25.154Z,96070.00
2023-11-23T04:34:25.074Z,96071.00
2023-11-23T04:35:25.026Z,96073.00
2023-11-23T04:36:25.061Z,96075.00
2023-11-23T04:37:25.362Z,96075.00
2023-11-23T04:38:25.006Z,96075.00
2023-11-23T04:39:25.051Z,96074.00
2023-11-23T04:40:24.987Z,96073.00
2023-11-23T04:41:24.992Z,96069.00
2023-11-23T04:42:25.043Z,96066.00
2023-11-23T04:43:24.970Z,96067.00
2023-11-23T04:44:24.992Z,96068.00
2023-11-23T04:45:24.965Z,96072.00
2023-11-23T04:46:24.959Z,96071.00
2023-11-23T04:47:24.964Z,96073.00
2023-11-23T04:48:24.971Z,96072.00
2023-11-23T04:49:24.898Z,96071.00
2023-11-23T04:50:24.887Z,96065.00
2023-11-23T04:51:24.980Z,96066.00
2023-11-23T04:52:24.880Z,96067.00
2023-11-23T04:53:24.868Z,96069.00
2023-11-23T04:54:24.864Z,96078.00
2023-11-23T04:55:24.848Z,96080.00
2023-11-23T04:56:24.835Z,96083.00
2023-11-23T04:57:24.912Z,96085.00
2023-11-23T04:58:26.121Z,96084.00
2023-11-23T04:59:24.810Z,96086.00
2023-11-23T05:00:24.834Z,96087.00
2023-11-23T05:01:24.814Z,96092.00
2023-11-23T05:02:24.786Z,96095.00
2023-11-23T05:03:24.976Z,96099.00
2023-11-23T05:04:24.796Z,96096.00
2023-11-23T05:05:24.751Z,96094.00
2023-11-23T05:06:24.764Z,96094.00
2023-11-23T05:07:24.733Z,96098.00
2023-11-23T05:08:24.725Z,96101.00
2023-11-23T05:09:24.770Z,96099.00
2023-11-23T05:10:24.723Z,96096.00
2023-11-23T05:11:24.707Z,96096.00
2023-11-23T05:12:24.737Z,96095.00
2023-11-23T05:13:24.735Z,96097.00
2023-11-23T05:14:24.697Z,96096.00
2023-11-23T05:15:24.732Z,96096.00
2023-11-23T05:16:24.668Z,96094.00
2023-11-23T05:17:24.649Z,96096.00
2023-11-23T05:18:24.721Z,96096.00
2023-11-23T05:19:35.835Z,96097.00
2023-11-23T05:20:24.615Z,96100.00
2023-11-23T05:21:24.628Z,96098.00
2023-11-23T05:22:24.596Z,96096.00
2023-11-23T05:23:24.586Z,96096.00
2023-11-23T05:24:24.604Z,96095.00
2023-11-23T05:25:24.590Z,96091.00
2023-11-23T05:26:24.557Z,96088.00
2023-11-23T05:27:24.591Z,96085.00
2023-11-23T05:28:24.553Z,96084.00
2023-11-23T05:29:24.560Z,96087.00
2023-11-23T05:30:24.583Z,96093.00
2023-11-23T05:31:24.530Z,96099.00
2023-11-23T05:32:24.509Z,96102.00
2023-11-23T05:33:26.031Z,96102.00
2023-11-23T05:34:24.691Z,96102.00
2023-11-23T05:35:24.703Z,96101.00
2023-11-23T05:36:24.715Z,96100.00
2023-11-23T05:37:24.668Z,96103.00
2023-11-23T05:38:24.658Z,96105.00
2023-11-23T05:39:24.820Z,96108.00
2023-11-23T05:40:24.655Z,96107.00
2023-11-23T05:41:24.624Z,96108.00
2023-11-23T05:42:24.698Z,96110.00
2023-11-23T05:43:24.629Z,96112.00
2023-11-23T05:44:24.638Z,96114.00
2023-11-23T05:45:24.668Z,96114.00
2023-11-23T05:46:24.601Z,96113.00
2023-11-23T05:47:24.620Z,96112.00
2023-11-23T05:48:24.670Z,96114.00
2023-11-23T05:49:24.573Z,96115.00
2023-11-23T05:50:24.547Z,96118.00
2023-11-23T05:51:25.097Z,96117.00
2023-11-23T05:52:24.529Z,96115.00
2023-11-23T05:53:24.539Z,96111.00
2023-11-23T05:54:24.567Z,96110.00
2023-11-23T05:55:24.526Z,96111.00
2023-11-23T05:56:24.493Z,96111.00
2023-11-23T05:57:24.513Z,96111.00
2023-11-23T05:58:24.476Z,96109.00
2023-11-23T05:59:24.466Z,96106.00
2023-11-23T06:00:24.505Z,96100.00
2023-11-23T06:01:24.482Z,96096.00
2023-11-23T06:02:24.545Z,96098.00
2023-11-23T06:03:25.485Z,96094.00
2023-11-23T06:04:24.490Z,96094.00
2023-11-23T06:05:24.509Z,96095.00
2023-11-23T06:06:24.430Z,96092.00
2023-11-23T06:07:24.394Z,96091.00
2023-11-23T06:08:24.390Z,96088.00
2023-11-23T06:09:24.494Z,96086.00
2023-11-23T06:10:25.736Z,96089.00
2023-11-23T06:11:24.356Z,96087.00
2023-11-23T06:12:24.358Z,96088.00
2023-11-23T06:13:24.341Z,96086.00
2023-11-23T06:14:24.333Z,96085.00
2023-11-23T06:15:24.336Z,96084.00
2023-11-23T06:16:24.342Z,96082.00
2023-11-23T06:17:24.423Z,96078.00
2023-11-23T06:18:24.335Z,96073.00
2023-11-23T06:19:24.285Z,96072.00
2023-11-23T06:20:24.278Z,96068.00
2023-11-23T06:21:24.305Z,96065.00
2023-11-23T06:22:24.500Z,96062.00
2023-11-23T06:23:24.249Z,96061.00
2023-11-23T06:24:24.310Z,96069.00
2023-11-23T06:25:25.665Z,96072.00
2023-11-23T06:26:24.222Z,96077.00
2023-11-23T06:27:24.237Z,96083.00
2023-11-23T06:28:24.201Z,96088.00
2023-11-23T06:29:24.202Z,96090.00
2023-11-23T06:30:24.269Z,96093.00
2023-11-23T06:31:24.183Z,96095.00
2023-11-23T06:32:24.554Z,96089.00
2023-11-23T06:33:24.229Z,96087.00
2023-11-23T06:34:24.151Z,96086.00
2023-11-23T06:35:24.136Z,96089.00
2023-11-23T06:36:24.145Z,96093.00
2023-11-23T06:37:24.117Z,96094.00
2023-11-23T06:38:24.111Z,96093.00
2023-11-23T06:39:24.161Z,96091.00
2023-11-23T06:40:24.104Z,96089.00
2023-11-23T06:41:24.583Z,96089.00
2023-11-23T06:42:24.083Z,96088.00
2023-11-23T06:43:24.066Z,96089.00
2023-11-23T06:44:24.083Z,96090.00
2023-11-23T06:45:24.118Z,96091.00
2023-11-23T06:46:24.110Z,96092.00
2023-11-23T06:47:24.048Z,96093.00
2023-11-23T06:48:24.652Z,96094.00
2023-11-23T06:49:24.045Z,96095.00
2023-11-23T06:50:24.002Z,96096.00
2023-11-23T06:51:24.065Z,96099.00
2023-11-23T06:52:23.989Z,96093.00
2023-11-23T06:53:27.228Z,96093.00
2023-11-23T06:54:24.014Z,96095.00
2023-11-23T06:55:23.973Z,96093.00
2023-11-23T06:56:23.983Z,96096.00
2023-11-23T06:57:23.994Z,96097.00
2023-11-23T06:58:24.017Z,96097.00
2023-11-23T06:59:23.920Z,96094.00
2023-11-23T07:00:27.378Z,96090.00
2023-11-23T07:01:23.951Z,96091.00
2023-11-23T07:02:23.975Z,96093.00
2023-11-23T07:03:24.083Z,96096.00
2023-11-23T07:04:24.056Z,96092.00
2023-11-23T07:05:23.899Z,96097.00
2023-11-23T07:06:24.469Z,96101.00
2023-11-23T07:07:24.192Z,96103.00
2023-11-23T07:08:31.263Z,96105.00
2023-11-23T07:09:24.191Z,96103.00
2023-11-23T07:10:24.082Z,96102.00
2023-11-23T07:11:24.021Z,96103.00
2023-11-23T07:12:23.873Z,96098.00
2023-11-23T07:13:23.829Z,96101.00
2023-11-23T07:14:24.058Z,96103.00
2023-11-23T07:15:23.794Z,96098.00
2023-11-23T07:16:24.436Z,96107.00
2023-11-23T07:17:23.757Z,96104.00
2023-11-23T07:18:23.831Z,96103.00
2023-11-23T07:19:23.769Z,96105.00
2023-11-23T07:20:23.763Z,96103.00
2023-11-23T07:21:24.114Z,96100.00
2023-11-23T07:22:23.711Z,96102.00
2023-11-23T07:23:23.714Z,96099.00
2023-11-23T07:24:24.117Z,96097.00
2023-11-23T07:25:24.147Z,96096.00
2023-11-23T07:26:23.674Z,96098.00
2023-11-23T07:27:23.719Z,96104.00
2023-11-23T07:28:23.946Z,96098.00
2023-11-23T07:29:25.056Z,96098.00
2023-11-23T07:30:23.699Z,96103.00
2023-11-23T07:31:23.678Z,96100.00
2023-11-23T07:32:23.627Z,96101.00
2023-11-23T07:33:23.664Z,96102.00
2023-11-23T07:34:23.603Z,96102.00
2023-11-23T07:35:24.085Z,96105.00
2023-11-23T07:36:23.593Z,96107.00
2023-11-23T07:37:23.602Z,96102.00
2023-11-23T07:38:23.576Z,96100.00
2023-11-23T07:39:23.649Z,96101.00
2023-11-23T07:40:23.546Z,96102.00
2023-11-23T07:41:23.575Z,96102.00
2023-11-23T07:42:23.561Z,96098.00
2023-11-23T07:43:23.519Z,96092.00
2023-11-23T07:44:23.511Z,96087.00
2023-11-23T07:45:23.585Z,96084.00
2023-11-23T07:46:25.182Z,96080.00
2023-11-23T07:47:23.501Z,96075.00
2023-11-23T07:48:23.547Z,96075.00
2023-11-23T07:49:23.589Z,96077.00
2023-11-23T07:50:23.578Z,96074.00
2023-11-23T07:51:23.547Z,96074.00
2023-11-23T07:52:23.496Z,96075.00
2023-11-23T07:53:23.463Z,96073.00
2023-11-23T07:54:23.476Z,96074.00
2023-11-23T07:55:23.539Z,96076.00
2023-11-23T07:56:23.406Z,96079.00
2023-11-23T07:57:23.441Z,96080.00
2023-11-23T07:58:23.455Z,96082.00
2023-11-23T07:59:23.371Z,96082.00
2023-11-23T08:00:23.646Z,96082.00
2023-11-23T08:01:23.356Z,96081.00
2023-11-23T08:02:23.358Z,96080.00
2023-11-23T08:03:23.446Z,96082.00
2023-11-23T08:04:23.437Z,96084.00
2023-11-23T08:05:23.546Z,96082.00
2023-11-23T08:06:23.421Z,96082.00
2023-11-23T08:07:23.313Z,96078.00
2023-11-23T08:08:24.058Z,96077.00
2023-11-23T08:09:23.388Z,96078.00
2023-11-23T08:10:23.284Z,96076.00
2023-11-23T08:11:23.699Z,96075.00
2023-11-23T08:12:23.309Z,96071.00
2023-11-23T08:13:23.543Z,96067.00
2023-11-23T08:14:23.282Z,96067.00
2023-11-23T08:15:23.726Z,96066.00
2023-11-23T08:16:23.271Z,96064.00
2023-11-23T08:17:23.709Z,96062.00
2023-11-23T08:18:27.380Z,96068.00
2023-11-23T08:19:23.487Z,96066.00
2023-11-23T08:20:23.599Z,96069.00
2023-11-23T08:21:23.230Z,96063.00
2023-11-23T08:22:23.174Z,96061.00
2023-11-23T08:23:23.546Z,96059.00
2023-11-23T08:24:23.243Z,96059.00
2023-11-23T08:25:23.163Z,96059.00
2023-11-23T08:26:23.132Z,96063.00
2023-11-23T08:27:23.140Z,96059.00
2023-11-23T08:28:23.560Z,96060.00
2023-11-23T08:29:23.414Z,96063.00
2023-11-23T08:30:23.414Z,96061.00
2023-11-23T08:31:23.146Z,96060.00
2023-11-23T08:32:23.070Z,96064.00
2023-11-23T08:33:24.030Z,96064.00
2023-11-23T08:34:23.057Z,96066.00
2023-11-23T08:35:23.096Z,96065.00
2023-11-23T08:36:23.285Z,96063.00
2023-11-23T08:37:23.130Z,96062.00
2023-11-23T08:38:23.070Z,96065.00
2023-11-23T08:39:23.055Z,96060.00
2023-11-23T08:40:30.460Z,96065.00
2023-11-23T08:41:23.009Z,96063.00
2023-11-23T08:42:23.053Z,96059.00
2023-11-23T08:43:23.085Z,96061.00
2023-11-23T08:44:22.990Z,96059.00
2023-11-23T08:45:23.105Z,96056.00
2023-11-23T08:46:23.000Z,96058.00
2023-11-23T08:47:23.106Z,96056.00
2023-11-23T08:48:23.074Z,96056.00
2023-11-23T08:49:23.073Z,96053.00
2023-11-23T08:50:22.947Z,96053.00
2023-11-23T08:51:22.914Z,96054.00
2023-11-23T08:52:23.903Z,96049.00
2023-11-23T08:53:22.931Z,96053.00
2023-11-23T08:54:24.187Z,96051.00
2023-11-23T08:55:22.866Z,96051.00
2023-11-23T08:56:22.884Z,96053.00
2023-11-23T08:57:22.863Z,96062.00
2023-11-23T08:58:22.834Z,96064.00
2023-11-23T08:59:22.822Z,96056.00
2023-11-23T09:00:22.904Z,96056.00
2023-11-23T09:01:23.074Z,96057.00
2023-11-23T09:02:22.888Z,96055.00
2023-11-23T09:03:22.927Z,96059.00
2023-11-23T09:04:26.548Z,96056.00
2023-11-23T09:05:22.884Z,96055.00
2023-11-23T09:06:23.092Z,96051.00
2023-11-23T09:07:22.798Z,96051.00
2023-11-23T09:08:22.744Z,96052.00
2023-11-23T09:09:22.770Z,96055.00
2023-11-23T09:10:22.728Z,96055.00
2023-11-23T09:11:22.713Z,96058.00
2023-11-23T09:12:22.729Z,96056.00
2023-11-23T09:13:22.698Z,96053.00
2023-11-23T09:14:22.704Z,96052.00
2023-11-23T09:15:24.141Z,96046.00
2023-11-23T09:16:22.667Z,96046.00
2023-11-23T09:17:22.664Z,96040.00
2023-11-23T09:18:23.294Z,96042.00
2023-11-23T09:19:22.664Z,96044.00
2023-11-23T09:20:22.641Z,96046.00
2023-11-23T09:21:22.657Z,96041.00
2023-11-23T09:22:22.627Z,96039.00
2023-11-23T09:23:23.071Z,96040.00
2023-11-23T09:24:22.707Z,96042.00
2023-11-23T09:25:22.992Z,96040.00
2023-11-23T09:26:22.579Z,96038.00
2023-11-23T09:27:24.216Z,96042.00
2023-11-23T09:28:22.586Z,96036.00
2023-11-23T09:29:22.563Z,96050.00
2023-11-23T09:30:23.309Z,96045.00
2023-11-23T09:31:22.549Z,96053.00
2023-11-23T09:32:22.580Z,96054.00
2023-11-23T09:33:23.422Z,96050.00
2023-11-23T09:34:22.587Z,96038.00
2023-11-23T09:35:22.525Z,96036.00
2023-11-23T09:36:22.528Z,96039.00
2023-11-23T09:37:22.512Z,96037.00
2023-11-23T09:38:22.580Z,96036.00
2023-11-23T09:39:24.811Z,96034.00
2023-11-23T09:40:22.450Z,96030.00
2023-11-23T09:41:22.620Z,96028.00
2023-11-23T09:42:22.479Z,96036.00
2023-11-23T09:43:22.426Z,96028.00
2023-11-23T09:44:22.649Z,96024.00
2023-11-23T09:45:25.325Z,96019.00
2023-11-23T09:46:22.451Z,96018.00
2023-11-23T09:47:22.536Z,96014.00
2023-11-23T09:48:22.449Z,96012.00
2023-11-23T09:49:22.608Z,96011.00
2023-11-23T09:50:22.373Z,96009.00
2023-11-23T09:51:22.367Z,96006.00
2023-11-23T09:52:22.583Z,96003.00
2023-11-23T09:53:22.356Z,96003.00
2023-11-23T09:54:22.613Z,96002.00
2023-11-23T09:55:22.319Z,96001.00
2023-11-23T09:56:22.308Z,96002.00
2023-11-23T09:57:22.324Z,96003.00
2023-11-23T09:58:22.289Z,96006.00
2023-11-23T09:59:22.599Z,96005.00
2023-11-23T10:00:22.870Z,95998.00
2023-11-23T10:01:22.281Z,96000.00
2023-11-23T10:02:22.334Z,95997.00
2023-11-23T10:03:22.663Z,95993.00
2023-11-23T10:04:22.284Z,95993.00
2023-11-23T10:05:22.229Z,95998.00
2023-11-23T10:06:22.247Z,95995.00
2023-11-23T10:07:22.587Z,95995.00
2023-11-23T10:08:22.588Z,95994.00
2023-11-23T10:09:22.228Z,95991.00
2023-11-23T10:10:22.197Z,95987.00
2023-11-23T10:11:22.174Z,95983.00
2023-11-23T10:12:22.203Z,95982.00
2023-11-23T10:13:22.593Z,95978.00
2023-11-23T10:14:22.143Z,95974.00
2023-11-23T10:15:22.165Z,95972.00
2023-11-23T10:16:22.161Z,95973.00
2023-11-23T10:17:22.591Z,95969.00
2023-11-23T10:18:22.696Z,95973.00
2023-11-23T10:19:22.114Z,95974.00
2023-11-23T10:20:22.108Z,95973.00
2023-11-23T10:21:22.118Z,95971.00
2023-11-23T10:22:22.201Z,95972.00
2023-11-23T10:23:22.096Z,95972.00
2023-11-23T10:24:22.103Z,95972.00
2023-11-23T10:25:22.047Z,95975.00
2023-11-23T10:26:22.050Z,95970.00
2023-11-23T10:27:22.059Z,95961.00
2023-11-23T10:28:22.111Z,95968.00
2023-11-23T10:29:22.007Z,95964.00
2023-11-23T10:30:22.025Z,95963.00
2023-11-23T10:31:21.990Z,95958.00
2023-11-23T10:32:22.034Z,95954.00
2023-11-23T10:33:22.562Z,95951.00
2023-11-23T10:34:22.004Z,95952.00
2023-11-23T10:35:25.150Z,95953.00
2023-11-23T10:36:22.179Z,95952.00
2023-11-23T10:37:21.958Z,95948.00
2023-11-23T10:38:25.566Z,95941.00
2023-11-23T10:39:22.051Z,95940.00
2023-11-23T10:40:21.945Z,95936.00
2023-11-23T10:41:21.925Z,95933.00
2023-11-23T10:42:21.996Z,95932.00
2023-11-23T10:43:22.145Z,95931.00
2023-11-23T10:44:21.931Z,95933.00
2023-11-23T10:45:22.568Z,95929.00
2023-11-23T10:46:22.398Z,95927.00
2023-11-23T10:47:21.863Z,95926.00
2023-11-23T10:48:21.971Z,95924.00
2023-11-23T10:49:21.860Z,95919.00
2023-11-23T10:50:21.827Z,95920.00
2023-11-23T10:51:22.197Z,95915.00
2023-11-23T10:52:21.834Z,95913.00
2023-11-23T10:53:21.799Z,95909.00
2023-11-23T10:54:21.826Z,95909.00
2023-11-23T10:55:21.834Z,95910.00
2023-11-23T10:56:21.791Z,95910.00
2023-11-23T10:57:22.753Z,95913.00
2023-11-23T10:58:21.752Z,95908.00
2023-11-23T10:59:22.123Z,95905.00
2023-11-23T11:00:22.564Z,95899.00
2023-11-23T11:01:22.149Z,95902.00
2023-11-23T11:02:21.819Z,95902.00
2023-11-23T11:03:22.253Z,95903.00
2023-11-23T11:04:21.827Z,95903.00
2023-11-23T11:05:22.138Z,95901.00
2023-11-23T11:06:21.689Z,95899.00
2023-11-23T11:07:21.659Z,95896.00
2023-11-23T11:08:21.952Z,95894.00
2023-11-23T11:09:21.671Z,95893.00
2023-11-23T11:10:22.123Z,95891.00
2023-11-23T11:11:22.005Z,95889.00
2023-11-23T11:12:21.977Z,95886.00
2023-11-23T11:13:21.997Z,95884.00
2023-11-23T11:14:21.615Z,95882.00
2023-11-23T11:15:22.532Z,95874.00
2023-11-23T11:16:21.944Z,95877.00
2023-11-23T11:17:21.772Z,95875.00
2023-11-23T11:18:21.804Z,95875.00
2023-11-23T11:19:21.630Z,95871.00
2023-11-23T11:20:21.849Z,95867.00
2023-11-23T11:21:21.821Z,95862.00
2023-11-23T11:22:21.801Z,95857.00
2023-11-23T11:23:25.029Z,95859.00
2023-11-23T11:24:21.913Z,95859.00
2023-11-23T11:25:21.705Z,95856.00
2023-11-23T11:26:21.541Z,95859.00
2023-11-23T11:27:21.814Z,95854.00
2023-11-23T11:28:21.716Z,95857.00
2023-11-23T11:29:21.534Z,95854.00
2023-11-23T11:30:21.728Z,95850.00
2023-11-23T11:31:22.052Z,95853.00
2023-11-23T11:32:22.050Z,95849.00
2023-11-23T11:33:21.568Z,95844.00
2023-11-23T11:34:21.761Z,95840.00
2023-11-23T11:35:21.676Z,95838.00
2023-11-23T11:36:21.633Z,95835.00
2023-11-23T11:37:21.874Z,95828.00
2023-11-23T11:38:21.576Z,95828.00
2023-11-23T11:39:21.517Z,95826.00
2023-11-23T11:40:22.578Z,95824.00
2023-11-23T11:41:21.390Z,95821.00
2023-11-23T11:42:21.885Z,95821.00
2023-11-23T11:43:21.431Z,95819.00
2023-11-23T11:44:21.354Z,95818.00
2023-11-23T11:45:21.455Z,95815.00
2023-11-23T11:46:21.565Z,95809.00
2023-11-23T11:47:21.837Z,95809.00
2023-11-23T11:48:21.433Z,95805.00
2023-11-23T11:49:21.397Z,95804.00
2023-11-23T11:50:21.453Z,95801.00
2023-11-23T11:51:21.321Z,95796.00
2023-11-23T11:52:21.696Z,95794.00
2023-11-23T11:53:21.243Z,95793.00
2023-11-23T11:54:21.319Z,95787.00
2023-11-23T11:55:21.225Z,95784.00
2023-11-23T11:56:21.212Z,95782.00
2023-11-23T11:57:21.225Z,95782.00
2023-11-23T11:58:21.214Z,95780.00
2023-11-23T11:59:21.204Z,95779.00
2023-11-23T12:00:21.187Z,95781.00
2023-11-23T12:01:21.190Z,95774.00
2023-11-23T12:02:21.755Z,95771.00
2023-11-23T12:03:21.242Z,95762.00
2023-11-23T12:04:21.238Z,95763.00
2023-11-23T12:05:21.165Z,95761.00
2023-11-23T12:06:21.228Z,95760.00
2023-11-23T12:07:21.152Z,95759.00
2023-11-23T12:08:21.171Z,95758.00
2023-11-23T12:09:30.824Z,95757.00
2023-11-23T12:10:21.096Z,95755.00
2023-11-23T12:11:21.106Z,95756.00
2023-11-23T12:12:21.350Z,95755.00
2023-11-23T12:13:21.169Z,95754.00
2023-11-23T12:14:21.095Z,95752.00
2023-11-23T12:15:21.109Z,95749.00
2023-11-23T12:16:21.042Z,95748.00
2023-11-23T12:17:21.152Z,95742.00
2023-11-23T12:18:21.064Z,95740.00
2023-11-23T12:19:21.007Z,95733.00
2023-11-23T12:20:21.206Z,95737.00
2023-11-23T12:21:21.053Z,95729.00
2023-11-23T12:22:21.014Z,95727.00
2023-11-23T12:23:21.157Z,95723.00
2023-11-23T12:24:21.069Z,95720.00
2023-11-23T12:25:20.948Z,95716.00
2023-11-23T12:26:20.966Z,95714.00
2023-11-23T12:27:20.948Z,95711.00
2023-11-23T12:28:21.147Z,95707.00
2023-11-23T12:29:20.911Z,95703.00
2023-11-23T12:30:20.943Z,95705.00
2023-11-23T12:31:21.209Z,95701.00
2023-11-23T12:32:20.877Z,95703.00
2023-11-23T12:33:20.976Z,95698.00
2023-11-23T12:34:20.869Z,95692.00
2023-11-23T12:35:20.882Z,95690.00